sensor_id;sensor_type;location;lat;lon;timestamp;temperature;humidity
17437;DHT22;73152;52.198;5.422;2023-10-13T00:00:29;22.80;68.00
17437;DHT22;73152;52.198;5.422;2023-10-13T00:03:04;22.80;68.00
17437;DHT22;73152;52.198;5.422;2023-10-13T00:05:41;22.90;67.60
17437;DHT22;73152;52.198;5.422;2023-10-13T00:08:11;22.90;67.50
17437;DHT22;73152;52.198;5.422;2023-10-13T00:10:40;22.90;67.70
17437;DHT22;73152;52.198;5.422;2023-10-13T00:13:09;22.80;67.90
17437;DHT22;73152;52.198;5.422;2023-10-13T00:15:42;22.90;67.40
17437;DHT22;73152;52.198;5.422;2023-10-13T00:18:25;22.90;67.40
17437;DHT22;73152;52.198;5.422;2023-10-13T00:20:58;22.60;68.80
17437;DHT22;73152;52.198;5.422;2023-10-13T00:23:37;22.60;69.00
17437;DHT22;73152;52.198;5.422;2023-10-13T00:26:09;22.60;69.10
17437;DHT22;73152;52.198;5.422;2023-10-13T00:28:43;22.60;68.80
17437;DHT22;73152;52.198;5.422;2023-10-13T00:31:13;22.70;68.70
17437;DHT22;73152;52.198;5.422;2023-10-13T00:33:45;22.70;68.40
17437;DHT22;73152;52.198;5.422;2023-10-13T00:36:17;22.80;68.20
17437;DHT22;73152;52.198;5.422;2023-10-13T00:38:45;22.80;68.00
17437;DHT22;73152;52.198;5.422;2023-10-13T00:41:17;23.00;67.00
17437;DHT22;73152;52.198;5.422;2023-10-13T00:44:06;23.00;67.00
17437;DHT22;73152;52.198;5.422;2023-10-13T00:46:36;23.00;67.00
17437;DHT22;73152;52.198;5.422;2023-10-13T00:49:07;23.00;67.30
17437;DHT22;73152;52.198;5.422;2023-10-13T00:51:36;22.90;67.40
17437;DHT22;73152;52.198;5.422;2023-10-13T00:54:07;22.90;67.40
17437;DHT22;73152;52.198;5.422;2023-10-13T00:56:40;22.90;67.80
17437;DHT22;73152;52.198;5.422;2023-10-13T00:59:14;22.70;68.70
17437;DHT22;73152;52.198;5.422;2023-10-13T01:01:45;22.70;68.40
17437;DHT22;73152;52.198;5.422;2023-10-13T01:04:22;22.80;68.40
17437;DHT22;73152;52.198;5.422;2023-10-13T01:06:53;22.70;68.50
17437;DHT22;73152;52.198;5.422;2023-10-13T01:09:21;22.80;68.40
17437;DHT22;73152;52.198;5.422;2023-10-13T01:11:50;22.90;67.80
17437;DHT22;73152;52.198;5.422;2023-10-13T01:14:21;22.90;67.80
17437;DHT22;73152;52.198;5.422;2023-10-13T01:16:52;22.90;67.70
17437;DHT22;73152;52.198;5.422;2023-10-13T01:19:26;23.00;67.40
17437;DHT22;73152;52.198;5.422;2023-10-13T01:21:53;23.00;67.30
17437;DHT22;73152;52.198;5.422;2023-10-13T01:24:30;23.00;67.50
17437;DHT22;73152;52.198;5.422;2023-10-13T01:27:00;22.90;67.90
17437;DHT22;73152;52.198;5.422;2023-10-13T01:29:42;22.90;67.50
17437;DHT22;73152;52.198;5.422;2023-10-13T01:32:13;22.90;67.80
17437;DHT22;73152;52.198;5.422;2023-10-13T01:34:40;22.70;68.40
17437;DHT22;73152;52.198;5.422;2023-10-13T01:37:11;22.90;67.70
17437;DHT22;73152;52.198;5.422;2023-10-13T01:39:40;22.80;68.00
17437;DHT22;73152;52.198;5.422;2023-10-13T01:42:13;22.90;67.90
17437;DHT22;73152;52.198;5.422;2023-10-13T01:44:45;22.70;68.40
17437;DHT22;73152;52.198;5.422;2023-10-13T01:47:14;22.80;67.90
17437;DHT22;73152;52.198;5.422;2023-10-13T01:49:42;22.80;68.20
17437;DHT22;73152;52.198;5.422;2023-10-13T01:52:13;22.80;68.20
17437;DHT22;73152;52.198;5.422;2023-10-13T01:54:44;22.90;67.60
17437;DHT22;73152;52.198;5.422;2023-10-13T01:57:14;22.90;67.50
17437;DHT22;73152;52.198;5.422;2023-10-13T01:59:44;23.00;67.10
17437;DHT22;73152;52.198;5.422;2023-10-13T02:02:13;22.80;68.10
17437;DHT22;73152;52.198;5.422;2023-10-13T02:04:41;22.90;67.80
17437;DHT22;73152;52.198;5.422;2023-10-13T02:07:14;22.90;67.70
17437;DHT22;73152;52.198;5.422;2023-10-13T02:09:43;22.90;67.90
17437;DHT22;73152;52.198;5.422;2023-10-13T02:12:12;23.00;67.00
17437;DHT22;73152;52.198;5.422;2023-10-13T02:14:40;23.10;66.80
17437;DHT22;73152;52.198;5.422;2023-10-13T02:17:10;23.00;67.40
17437;DHT22;73152;52.198;5.422;2023-10-13T02:19:39;23.00;67.20
17437;DHT22;73152;52.198;5.422;2023-10-13T02:22:10;22.90;67.60
17437;DHT22;73152;52.198;5.422;2023-10-13T02:24:37;22.80;68.00
17437;DHT22;73152;52.198;5.422;2023-10-13T02:27:09;22.60;68.70
17437;DHT22;73152;52.198;5.422;2023-10-13T02:29:40;22.70;68.60
17437;DHT22;73152;52.198;5.422;2023-10-13T02:32:11;22.60;69.00
17437;DHT22;73152;52.198;5.422;2023-10-13T02:34:44;22.60;69.00
17437;DHT22;73152;52.198;5.422;2023-10-13T02:37:13;22.70;68.70
17437;DHT22;73152;52.198;5.422;2023-10-13T02:39:39;22.50;69.10
17437;DHT22;73152;52.198;5.422;2023-10-13T02:42:11;22.50;69.30
17437;DHT22;73152;52.198;5.422;2023-10-13T02:44:48;22.60;68.70
17437;DHT22;73152;52.198;5.422;2023-10-13T02:47:18;22.70;68.40
17437;DHT22;73152;52.198;5.422;2023-10-13T02:49:45;22.60;68.80
17437;DHT22;73152;52.198;5.422;2023-10-13T02:52:14;22.60;68.70
17437;DHT22;73152;52.198;5.422;2023-10-13T02:54:41;22.60;68.70
17437;DHT22;73152;52.198;5.422;2023-10-13T02:57:15;22.60;68.70
17437;DHT22;73152;52.198;5.422;2023-10-13T02:59:42;22.70;68.60
17437;DHT22;73152;52.198;5.422;2023-10-13T03:02:21;22.80;68.00
17437;DHT22;73152;52.198;5.422;2023-10-13T03:04:55;22.80;67.80
17437;DHT22;73152;52.198;5.422;2023-10-13T03:07:25;22.90;67.60
17437;DHT22;73152;52.198;5.422;2023-10-13T03:09:54;22.40;69.70
17437;DHT22;73152;52.198;5.422;2023-10-13T03:12:28;22.30;69.90
17437;DHT22;73152;52.198;5.422;2023-10-13T03:14:59;22.50;69.40
17437;DHT22;73152;52.198;5.422;2023-10-13T03:17:38;22.50;69.10
17437;DHT22;73152;52.198;5.422;2023-10-13T03:20:09;22.60;68.70
17437;DHT22;73152;52.198;5.422;2023-10-13T03:22:40;22.60;68.70
17437;DHT22;73152;52.198;5.422;2023-10-13T03:25:10;22.60;69.10
17437;DHT22;73152;52.198;5.422;2023-10-13T03:27:50;22.60;68.60
17437;DHT22;73152;52.198;5.422;2023-10-13T03:30:27;22.70;68.40
17437;DHT22;73152;52.198;5.422;2023-10-13T03:33:02;22.90;67.90
17437;DHT22;73152;52.198;5.422;2023-10-13T03:35:34;22.90;67.30
17437;DHT22;73152;52.198;5.422;2023-10-13T03:38:06;23.00;67.00
17437;DHT22;73152;52.198;5.422;2023-10-13T03:40:43;23.00;67.50
17437;DHT22;73152;52.198;5.422;2023-10-13T03:43:35;22.80;68.10
17437;DHT22;73152;52.198;5.422;2023-10-13T03:46:11;22.90;67.80
17437;DHT22;73152;52.198;5.422;2023-10-13T03:48:39;22.80;68.20
17437;DHT22;73152;52.198;5.422;2023-10-13T03:51:21;22.70;68.20
17437;DHT22;73152;52.198;5.422;2023-10-13T03:53:56;22.80;67.90
17437;DHT22;73152;52.198;5.422;2023-10-13T03:56:32;22.80;68.20
17437;DHT22;73152;52.198;5.422;2023-10-13T03:59:10;22.50;69.10
17437;DHT22;73152;52.198;5.422;2023-10-13T04:01:47;22.30;70.30
17437;DHT22;73152;52.198;5.422;2023-10-13T04:04:24;22.30;70.00
17437;DHT22;73152;52.198;5.422;2023-10-13T04:07:13;22.40;69.80
17437;DHT22;73152;52.198;5.422;2023-10-13T04:10:06;22.60;69.00
17437;DHT22;73152;52.198;5.422;2023-10-13T04:12:48;22.40;69.80
17437;DHT22;73152;52.198;5.422;2023-10-13T04:15:31;22.60;69.10
17437;DHT22;73152;52.198;5.422;2023-10-13T04:18:07;22.70;68.70
17437;DHT22;73152;52.198;5.422;2023-10-13T04:20:59;22.60;68.80
17437;DHT22;73152;52.198;5.422;2023-10-13T04:23:44;22.60;68.80
17437;DHT22;73152;52.198;5.422;2023-10-13T04:26:25;22.80;68.20
17437;DHT22;73152;52.198;5.422;2023-10-13T04:29:03;23.00;67.30
17437;DHT22;73152;52.198;5.422;2023-10-13T04:31:39;22.90;67.30
17437;DHT22;73152;52.198;5.422;2023-10-13T04:34:23;22.80;68.00
17437;DHT22;73152;52.198;5.422;2023-10-13T04:37:04;22.70;68.70
17437;DHT22;73152;52.198;5.422;2023-10-13T04:39:54;22.50;69.20
17437;DHT22;73152;52.198;5.422;2023-10-13T04:42:34;22.50;69.20
17437;DHT22;73152;52.198;5.422;2023-10-13T04:45:16;22.60;68.90
17437;DHT22;73152;52.198;5.422;2023-10-13T04:48:01;22.70;68.70
17437;DHT22;73152;52.198;5.422;2023-10-13T04:50:44;22.60;69.10
17437;DHT22;73152;52.198;5.422;2023-10-13T04:53:17;22.70;69.00
17437;DHT22;73152;52.198;5.422;2023-10-13T04:55:57;22.60;69.00
17437;DHT22;73152;52.198;5.422;2023-10-13T04:58:56;22.80;68.00
17437;DHT22;73152;52.198;5.422;2023-10-13T05:01:37;22.90;67.60
17437;DHT22;73152;52.198;5.422;2023-10-13T05:04:20;22.90;67.60
17437;DHT22;73152;52.198;5.422;2023-10-13T05:07:03;22.80;68.40
17437;DHT22;73152;52.198;5.422;2023-10-13T05:09:51;22.90;67.90
17437;DHT22;73152;52.198;5.422;2023-10-13T05:12:32;22.80;68.50
17437;DHT22;73152;52.198;5.422;2023-10-13T05:15:13;22.70;68.30
17437;DHT22;73152;52.198;5.422;2023-10-13T05:17:55;22.80;68.50
17437;DHT22;73152;52.198;5.422;2023-10-13T05:20:38;22.80;68.20
17437;DHT22;73152;52.198;5.422;2023-10-13T05:23:20;22.80;68.50
17437;DHT22;73152;52.198;5.422;2023-10-13T05:26:02;22.80;68.60
17437;DHT22;73152;52.198;5.422;2023-10-13T05:28:43;22.80;68.60
17437;DHT22;73152;52.198;5.422;2023-10-13T05:31:24;22.80;69.20
17437;DHT22;73152;52.198;5.422;2023-10-13T05:34:06;22.80;69.20
17437;DHT22;73152;52.198;5.422;2023-10-13T05:36:49;22.70;69.60
17437;DHT22;73152;52.198;5.422;2023-10-13T05:39:31;22.60;70.30
17437;DHT22;73152;52.198;5.422;2023-10-13T05:42:12;22.60;70.10
17437;DHT22;73152;52.198;5.422;2023-10-13T05:44:53;22.60;70.20
17437;DHT22;73152;52.198;5.422;2023-10-13T05:47:44;22.40;70.80
17437;DHT22;73152;52.198;5.422;2023-10-13T05:50:16;22.30;71.40
17437;DHT22;73152;52.198;5.422;2023-10-13T05:53:18;22.20;71.60
17437;DHT22;73152;52.198;5.422;2023-10-13T05:56:04;22.00;72.20
17437;DHT22;73152;52.198;5.422;2023-10-13T05:58:45;22.10;72.00
17437;DHT22;73152;52.198;5.422;2023-10-13T06:01:26;22.10;71.40
17437;DHT22;73152;52.198;5.422;2023-10-13T06:04:08;22.10;71.10
17437;DHT22;73152;52.198;5.422;2023-10-13T06:06:49;22.30;70.60
17437;DHT22;73152;52.198;5.422;2023-10-13T06:09:33;22.20;71.10
17437;DHT22;73152;52.198;5.422;2023-10-13T06:12:14;22.10;70.90
17437;DHT22;73152;52.198;5.422;2023-10-13T06:14:55;22.20;70.50
17437;DHT22;73152;52.198;5.422;2023-10-13T06:17:36;22.40;69.80
17437;DHT22;73152;52.198;5.422;2023-10-13T06:20:18;22.30;70.00
17437;DHT22;73152;52.198;5.422;2023-10-13T06:22:59;22.20;70.30
17437;DHT22;73152;52.198;5.422;2023-10-13T06:25:43;22.10;70.90
17437;DHT22;73152;52.198;5.422;2023-10-13T06:28:30;22.10;70.80
17437;DHT22;73152;52.198;5.422;2023-10-13T06:31:13;22.00;71.50
17437;DHT22;73152;52.198;5.422;2023-10-13T06:33:51;22.20;70.70
17437;DHT22;73152;52.198;5.422;2023-10-13T06:36:21;22.20;70.60
17437;DHT22;73152;52.198;5.422;2023-10-13T06:38:51;22.10;71.50
17437;DHT22;73152;52.198;5.422;2023-10-13T06:41:49;22.30;70.10
17437;DHT22;73152;52.198;5.422;2023-10-13T06:44:19;22.30;70.40
17437;DHT22;73152;52.198;5.422;2023-10-13T06:46:48;22.20;70.70
17437;DHT22;73152;52.198;5.422;2023-10-13T06:49:18;22.10;72.00
17437;DHT22;73152;52.198;5.422;2023-10-13T06:51:48;22.10;71.40
17437;DHT22;73152;52.198;5.422;2023-10-13T06:54:17;22.30;70.60
17437;DHT22;73152;52.198;5.422;2023-10-13T06:56:50;22.40;70.20
17437;DHT22;73152;52.198;5.422;2023-10-13T06:59:19;22.40;70.10
17437;DHT22;73152;52.198;5.422;2023-10-13T07:01:52;22.30;71.20
17437;DHT22;73152;52.198;5.422;2023-10-13T07:04:27;22.30;71.40
17437;DHT22;73152;52.198;5.422;2023-10-13T07:06:55;22.30;71.10
17437;DHT22;73152;52.198;5.422;2023-10-13T07:09:26;22.50;70.20
17437;DHT22;73152;52.198;5.422;2023-10-13T07:12:17;22.50;70.00
17437;DHT22;73152;52.198;5.422;2023-10-13T07:14:52;22.60;70.30
17437;DHT22;73152;52.198;5.422;2023-10-13T07:17:25;22.60;70.10
17437;DHT22;73152;52.198;5.422;2023-10-13T07:19:59;22.80;68.80
17437;DHT22;73152;52.198;5.422;2023-10-13T07:22:40;22.80;69.20
17437;DHT22;73152;52.198;5.422;2023-10-13T07:25:20;22.90;70.00
17437;DHT22;73152;52.198;5.422;2023-10-13T07:27:54;22.90;69.20
17437;DHT22;73152;52.198;5.422;2023-10-13T07:30:23;23.00;69.50
17437;DHT22;73152;52.198;5.422;2023-10-13T07:32:56;23.00;68.90
17437;DHT22;73152;52.198;5.422;2023-10-13T07:35:26;23.20;68.90
17437;DHT22;73152;52.198;5.422;2023-10-13T07:38:03;23.10;68.60
17437;DHT22;73152;52.198;5.422;2023-10-13T07:40:34;23.00;69.30
17437;DHT22;73152;52.198;5.422;2023-10-13T07:43:18;23.10;69.30
17437;DHT22;73152;52.198;5.422;2023-10-13T07:45:53;23.10;68.80
17437;DHT22;73152;52.198;5.422;2023-10-13T07:48:24;23.10;69.00
17437;DHT22;73152;52.198;5.422;2023-10-13T07:51:00;23.10;69.00
17437;DHT22;73152;52.198;5.422;2023-10-13T07:53:30;23.00;69.20
17437;DHT22;73152;52.198;5.422;2023-10-13T07:56:04;23.00;69.30
17437;DHT22;73152;52.198;5.422;2023-10-13T07:58:36;22.80;70.30
17437;DHT22;73152;52.198;5.422;2023-10-13T08:01:13;22.90;69.90
17437;DHT22;73152;52.198;5.422;2023-10-13T08:03:45;22.90;70.30
17437;DHT22;73152;52.198;5.422;2023-10-13T08:06:30;22.90;69.90
17437;DHT22;73152;52.198;5.422;2023-10-13T08:09:02;22.90;70.10
17437;DHT22;73152;52.198;5.422;2023-10-13T08:11:54;23.10;68.80
17437;DHT22;73152;52.198;5.422;2023-10-13T08:14:26;23.10;69.20
17437;DHT22;73152;52.198;5.422;2023-10-13T08:16:59;23.10;68.80
17437;DHT22;73152;52.198;5.422;2023-10-13T08:19:32;23.10;68.80
17437;DHT22;73152;52.198;5.422;2023-10-13T08:22:06;23.20;68.30
17437;DHT22;73152;52.198;5.422;2023-10-13T08:24:50;23.30;67.70
17437;DHT22;73152;52.198;5.422;2023-10-13T08:27:40;23.30;68.20
17437;DHT22;73152;52.198;5.422;2023-10-13T08:30:33;23.30;67.60
17437;DHT22;73152;52.198;5.422;2023-10-13T08:33:18;23.40;67.60
17437;DHT22;73152;52.198;5.422;2023-10-13T08:35:50;23.30;67.70
17437;DHT22;73152;52.198;5.422;2023-10-13T08:38:37;23.40;67.70
17437;DHT22;73152;52.198;5.422;2023-10-13T08:41:16;23.50;67.70
17437;DHT22;73152;52.198;5.422;2023-10-13T08:43:58;23.40;67.20
17437;DHT22;73152;52.198;5.422;2023-10-13T08:46:38;23.40;67.30
17437;DHT22;73152;52.198;5.422;2023-10-13T08:49:20;23.40;67.30
17437;DHT22;73152;52.198;5.422;2023-10-13T08:51:50;23.30;67.60
17437;DHT22;73152;52.198;5.422;2023-10-13T08:54:33;23.30;67.60
17437;DHT22;73152;52.198;5.422;2023-10-13T08:57:05;23.30;67.40
17437;DHT22;73152;52.198;5.422;2023-10-13T08:59:58;23.30;67.40
17437;DHT22;73152;52.198;5.422;2023-10-13T09:02:49;23.30;67.10
17437;DHT22;73152;52.198;5.422;2023-10-13T09:05:41;23.30;67.20
17437;DHT22;73152;52.198;5.422;2023-10-13T09:08:26;23.40;66.90
17437;DHT22;73152;52.198;5.422;2023-10-13T09:11:02;23.30;67.10
17437;DHT22;73152;52.198;5.422;2023-10-13T09:13:37;23.30;67.20
17437;DHT22;73152;52.198;5.422;2023-10-13T09:16:13;23.30;67.10
17437;DHT22;73152;52.198;5.422;2023-10-13T09:18:51;23.30;67.00
17437;DHT22;73152;52.198;5.422;2023-10-13T09:21:18;23.30;66.70
17437;DHT22;73152;52.198;5.422;2023-10-13T09:24:12;23.20;67.50
17437;DHT22;73152;52.198;5.422;2023-10-13T09:26:47;23.20;67.30
17437;DHT22;73152;52.198;5.422;2023-10-13T09:29:16;23.30;66.80
17437;DHT22;73152;52.198;5.422;2023-10-13T09:31:47;23.30;66.70
17437;DHT22;73152;52.198;5.422;2023-10-13T09:34:28;23.30;66.50
17437;DHT22;73152;52.198;5.422;2023-10-13T09:37:06;23.30;66.70
17437;DHT22;73152;52.198;5.422;2023-10-13T09:39:34;23.30;66.60
17437;DHT22;73152;52.198;5.422;2023-10-13T09:42:10;23.40;66.60
17437;DHT22;73152;52.198;5.422;2023-10-13T09:44:38;23.30;66.80
17437;DHT22;73152;52.198;5.422;2023-10-13T09:47:19;23.30;66.70
17437;DHT22;73152;52.198;5.422;2023-10-13T09:50:00;23.20;66.80
17437;DHT22;73152;52.198;5.422;2023-10-13T09:52:40;23.30;66.60
17437;DHT22;73152;52.198;5.422;2023-10-13T09:55:16;23.40;66.30
17437;DHT22;73152;52.198;5.422;2023-10-13T09:57:54;23.40;66.20
17437;DHT22;73152;52.198;5.422;2023-10-13T10:00:37;23.50;65.80
17437;DHT22;73152;52.198;5.422;2023-10-13T10:03:13;23.50;65.60
17437;DHT22;73152;52.198;5.422;2023-10-13T10:06:01;23.70;65.40
17437;DHT22;73152;52.198;5.422;2023-10-13T10:08:40;23.60;65.30
17437;DHT22;73152;52.198;5.422;2023-10-13T10:11:42;23.70;65.40
17437;DHT22;73152;52.198;5.422;2023-10-13T10:14:33;23.70;65.10
17437;DHT22;73152;52.198;5.422;2023-10-13T10:17:11;23.80;64.70
17437;DHT22;73152;52.198;5.422;2023-10-13T10:19:48;23.70;65.00
17437;DHT22;73152;52.198;5.422;2023-10-13T10:22:31;23.80;64.80
17437;DHT22;73152;52.198;5.422;2023-10-13T10:25:03;23.80;64.50
17437;DHT22;73152;52.198;5.422;2023-10-13T10:27:55;23.80;64.30
17437;DHT22;73152;52.198;5.422;2023-10-13T10:30:25;23.90;64.10
17437;DHT22;73152;52.198;5.422;2023-10-13T10:32:55;24.00;63.90
17437;DHT22;73152;52.198;5.422;2023-10-13T10:35:27;24.10;63.50
17437;DHT22;73152;52.198;5.422;2023-10-13T10:38:07;24.00;63.80
17437;DHT22;73152;52.198;5.422;2023-10-13T10:40:51;24.00;63.80
17437;DHT22;73152;52.198;5.422;2023-10-13T10:43:26;24.10;63.70
17437;DHT22;73152;52.198;5.422;2023-10-13T10:46:07;24.00;63.90
17437;DHT22;73152;52.198;5.422;2023-10-13T10:48:36;24.10;63.60
17437;DHT22;73152;52.198;5.422;2023-10-13T10:51:08;24.00;63.80
17437;DHT22;73152;52.198;5.422;2023-10-13T10:53:50;24.00;63.40
17437;DHT22;73152;52.198;5.422;2023-10-13T10:56:23;24.10;63.80
17437;DHT22;73152;52.198;5.422;2023-10-13T10:59:03;24.00;63.30
17437;DHT22;73152;52.198;5.422;2023-10-13T11:01:44;24.10;63.10
17437;DHT22;73152;52.198;5.422;2023-10-13T11:04:17;24.00;63.20
17437;DHT22;73152;52.198;5.422;2023-10-13T11:06:51;24.00;63.10
17437;DHT22;73152;52.198;5.422;2023-10-13T11:09:27;24.10;62.80
17437;DHT22;73152;52.198;5.422;2023-10-13T11:12:09;24.00;63.00
17437;DHT22;73152;52.198;5.422;2023-10-13T11:15:03;24.00;63.00
17437;DHT22;73152;52.198;5.422;2023-10-13T11:17:40;24.00;62.90
17437;DHT22;73152;52.198;5.422;2023-10-13T11:20:18;24.00;63.00
17437;DHT22;73152;52.198;5.422;2023-10-13T11:22:51;23.90;62.90
17437;DHT22;73152;52.198;5.422;2023-10-13T11:25:25;23.90;63.20
17437;DHT22;73152;52.198;5.422;2023-10-13T11:28:10;24.00;62.60
17437;DHT22;73152;52.198;5.422;2023-10-13T11:30:43;23.90;62.80
17437;DHT22;73152;52.198;5.422;2023-10-13T11:33:15;23.90;62.90
17437;DHT22;73152;52.198;5.422;2023-10-13T11:35:49;23.80;62.40
17437;DHT22;73152;52.198;5.422;2023-10-13T11:38:22;23.90;62.50
17437;DHT22;73152;52.198;5.422;2023-10-13T11:41:02;24.00;62.20
17437;DHT22;73152;52.198;5.422;2023-10-13T11:43:49;24.00;61.90
17437;DHT22;73152;52.198;5.422;2023-10-13T11:46:32;24.00;61.50
17437;DHT22;73152;52.198;5.422;2023-10-13T11:49:21;23.80;61.90
17437;DHT22;73152;52.198;5.422;2023-10-13T11:52:02;23.80;61.60
17437;DHT22;73152;52.198;5.422;2023-10-13T11:54:44;23.80;61.40
17437;DHT22;73152;52.198;5.422;2023-10-13T11:57:15;23.80;61.40
17437;DHT22;73152;52.198;5.422;2023-10-13T11:59:45;23.80;60.70
17437;DHT22;73152;52.198;5.422;2023-10-13T12:02:20;23.90;60.60
17437;DHT22;73152;52.198;5.422;2023-10-13T12:05:01;23.90;61.20
17437;DHT22;73152;52.198;5.422;2023-10-13T12:07:37;23.80;60.60
17437;DHT22;73152;52.198;5.422;2023-10-13T12:10:14;23.80;60.80
17437;DHT22;73152;52.198;5.422;2023-10-13T12:13:17;23.70;61.00
17437;DHT22;73152;52.198;5.422;2023-10-13T12:15:46;23.70;61.10
17437;DHT22;73152;52.198;5.422;2023-10-13T12:18:18;23.70;61.10
17437;DHT22;73152;52.198;5.422;2023-10-13T12:20:48;23.80;61.00
17437;DHT22;73152;52.198;5.422;2023-10-13T12:23:17;23.70;60.70
17437;DHT22;73152;52.198;5.422;2023-10-13T12:25:56;23.60;61.20
17437;DHT22;73152;52.198;5.422;2023-10-13T12:28:34;23.60;60.90
17437;DHT22;73152;52.198;5.422;2023-10-13T12:31:07;23.70;60.40
17437;DHT22;73152;52.198;5.422;2023-10-13T12:33:37;23.80;60.30
17437;DHT22;73152;52.198;5.422;2023-10-13T12:36:06;23.70;60.20
17437;DHT22;73152;52.198;5.422;2023-10-13T12:38:41;23.80;60.10
17437;DHT22;73152;52.198;5.422;2023-10-13T12:41:22;23.80;60.10
17437;DHT22;73152;52.198;5.422;2023-10-13T12:44:06;23.80;59.90
17437;DHT22;73152;52.198;5.422;2023-10-13T12:46:48;23.70;60.10
17437;DHT22;73152;52.198;5.422;2023-10-13T12:49:29;23.50;61.10
17437;DHT22;73152;52.198;5.422;2023-10-13T12:52:15;23.30;61.70
17437;DHT22;73152;52.198;5.422;2023-10-13T12:54:45;23.30;61.70
17437;DHT22;73152;52.198;5.422;2023-10-13T12:57:24;23.20;61.60
17437;DHT22;73152;52.198;5.422;2023-10-13T12:59:56;23.20;62.10
17437;DHT22;73152;52.198;5.422;2023-10-13T13:02:25;23.30;61.70
17437;DHT22;73152;52.198;5.422;2023-10-13T13:04:56;23.20;62.20
17437;DHT22;73152;52.198;5.422;2023-10-13T13:07:31;23.30;61.90
17437;DHT22;73152;52.198;5.422;2023-10-13T13:10:09;23.30;62.70
17437;DHT22;73152;52.198;5.422;2023-10-13T13:12:39;23.20;63.00
17437;DHT22;73152;52.198;5.422;2023-10-13T13:15:11;23.10;63.80
17437;DHT22;73152;52.198;5.422;2023-10-13T13:17:40;23.00;63.60
17437;DHT22;73152;52.198;5.422;2023-10-13T13:20:10;23.10;64.20
17437;DHT22;73152;52.198;5.422;2023-10-13T13:22:37;23.30;64.00
17437;DHT22;73152;52.198;5.422;2023-10-13T13:25:07;23.20;64.20
17437;DHT22;73152;52.198;5.422;2023-10-13T13:27:36;23.30;63.90
17437;DHT22;73152;52.198;5.422;2023-10-13T13:30:11;23.30;64.00
17437;DHT22;73152;52.198;5.422;2023-10-13T13:32:41;23.20;64.30
17437;DHT22;73152;52.198;5.422;2023-10-13T13:35:11;23.30;64.00
17437;DHT22;73152;52.198;5.422;2023-10-13T13:37:44;23.20;64.30
17437;DHT22;73152;52.198;5.422;2023-10-13T13:40:13;23.40;64.10
17437;DHT22;73152;52.198;5.422;2023-10-13T13:42:46;23.20;65.20
17437;DHT22;73152;52.198;5.422;2023-10-13T13:45:18;23.10;65.60
17437;DHT22;73152;52.198;5.422;2023-10-13T13:47:53;23.10;65.50
17437;DHT22;73152;52.198;5.422;2023-10-13T13:50:23;23.10;66.10
17437;DHT22;73152;52.198;5.422;2023-10-13T13:52:55;23.10;66.30
17437;DHT22;73152;52.198;5.422;2023-10-13T13:55:26;23.00;66.60
17437;DHT22;73152;52.198;5.422;2023-10-13T13:57:57;23.20;66.00
17437;DHT22;73152;52.198;5.422;2023-10-13T14:00:29;23.30;65.60
17437;DHT22;73152;52.198;5.422;2023-10-13T14:03:12;23.20;65.90
17437;DHT22;73152;52.198;5.422;2023-10-13T14:05:56;23.20;66.40
17437;DHT22;73152;52.198;5.422;2023-10-13T14:08:29;23.20;66.50
17437;DHT22;73152;52.198;5.422;2023-10-13T14:10:58;23.20;66.40
17437;DHT22;73152;52.198;5.422;2023-10-13T14:13:47;23.20;66.60
17437;DHT22;73152;52.198;5.422;2023-10-13T14:16:19;23.10;67.60
17437;DHT22;73152;52.198;5.422;2023-10-13T14:18:50;23.00;68.30
17437;DHT22;73152;52.198;5.422;2023-10-13T14:21:19;22.90;68.90
17437;DHT22;73152;52.198;5.422;2023-10-13T14:23:51;22.80;69.40
17437;DHT22;73152;52.198;5.422;2023-10-13T14:26:21;22.60;70.60
17437;DHT22;73152;52.198;5.422;2023-10-13T14:28:51;22.80;69.70
17437;DHT22;73152;52.198;5.422;2023-10-13T14:31:29;22.80;70.00
17437;DHT22;73152;52.198;5.422;2023-10-13T14:33:59;22.80;70.00
17437;DHT22;73152;52.198;5.422;2023-10-13T14:36:28;22.90;70.00
17437;DHT22;73152;52.198;5.422;2023-10-13T14:39:00;22.40;72.40
17437;DHT22;73152;52.198;5.422;2023-10-13T14:41:30;22.30;73.10
17437;DHT22;73152;52.198;5.422;2023-10-13T14:44:01;22.40;72.70
17437;DHT22;73152;52.198;5.422;2023-10-13T14:46:36;22.50;72.50
17437;DHT22;73152;52.198;5.422;2023-10-13T14:49:05;22.20;73.90
17437;DHT22;73152;52.198;5.422;2023-10-13T14:51:35;22.20;73.80
17437;DHT22;73152;52.198;5.422;2023-10-13T14:54:05;22.40;73.10
17437;DHT22;73152;52.198;5.422;2023-10-13T14:56:35;22.20;74.30
17437;DHT22;73152;52.198;5.422;2023-10-13T14:59:05;22.40;73.30
17437;DHT22;73152;52.198;5.422;2023-10-13T15:01:44;22.50;73.00
17437;DHT22;73152;52.198;5.422;2023-10-13T15:04:14;22.90;70.70
17437;DHT22;73152;52.198;5.422;2023-10-13T15:06:44;22.90;70.90
17437;DHT22;73152;52.198;5.422;2023-10-13T15:09:13;22.80;71.50
17437;DHT22;73152;52.198;5.422;2023-10-13T15:11:49;22.80;71.40
17437;DHT22;73152;52.198;5.422;2023-10-13T15:14:20;22.60;72.90
17437;DHT22;73152;52.198;5.422;2023-10-13T15:16:51;22.70;71.90
17437;DHT22;73152;52.198;5.422;2023-10-13T15:19:20;22.80;72.10
17437;DHT22;73152;52.198;5.422;2023-10-13T15:21:49;22.80;71.90
17437;DHT22;73152;52.198;5.422;2023-10-13T15:24:18;22.80;71.30
17437;DHT22;73152;52.198;5.422;2023-10-13T15:26:50;23.10;69.80
17437;DHT22;73152;52.198;5.422;2023-10-13T15:29:27;23.20;69.20
17437;DHT22;73152;52.198;5.422;2023-10-13T15:32:04;23.00;70.10
17437;DHT22;73152;52.198;5.422;2023-10-13T15:34:53;23.20;69.80
17437;DHT22;73152;52.198;5.422;2023-10-13T15:37:23;23.40;68.40
17437;DHT22;73152;52.198;5.422;2023-10-13T15:39:53;23.50;68.90
17437;DHT22;73152;52.198;5.422;2023-10-13T15:42:23;23.50;68.40
17437;DHT22;73152;52.198;5.422;2023-10-13T15:44:52;23.40;68.50
17437;DHT22;73152;52.198;5.422;2023-10-13T15:47:24;23.40;69.00
17437;DHT22;73152;52.198;5.422;2023-10-13T15:49:53;23.40;69.00
17437;DHT22;73152;52.198;5.422;2023-10-13T15:52:22;23.40;68.90
17437;DHT22;73152;52.198;5.422;2023-10-13T15:54:51;23.30;69.70
17437;DHT22;73152;52.198;5.422;2023-10-13T15:57:21;23.20;70.20
17437;DHT22;73152;52.198;5.422;2023-10-13T15:59:50;23.20;69.80
17437;DHT22;73152;52.198;5.422;2023-10-13T16:02:25;23.10;70.50
17437;DHT22;73152;52.198;5.422;2023-10-13T16:04:54;22.80;71.80
17437;DHT22;73152;52.198;5.422;2023-10-13T16:07:25;22.80;71.80
17437;DHT22;73152;52.198;5.422;2023-10-13T16:09:54;22.60;72.90
17437;DHT22;73152;52.198;5.422;2023-10-13T16:12:23;22.60;72.80
17437;DHT22;73152;52.198;5.422;2023-10-13T16:14:54;22.50;73.60
17437;DHT22;73152;52.198;5.422;2023-10-13T16:17:25;22.70;72.30
17437;DHT22;73152;52.198;5.422;2023-10-13T16:19:54;23.00;71.40
17437;DHT22;73152;52.198;5.422;2023-10-13T16:22:23;23.10;70.20